createdAt,value
2022-12-08T00:00:26.803Z,-1.67
2022-12-08T00:01:48.095Z,-1.66
2022-12-08T00:03:00.557Z,-1.59
2022-12-08T00:04:20.775Z,-1.49
2022-12-08T00:05:43.144Z,-1.50
2022-12-08T00:07:04.120Z,-1.44
2022-12-08T00:08:26.792Z,-1.41
2022-12-08T00:09:47.524Z,-1.39
2022-12-08T00:11:02.848Z,-1.35
2022-12-08T00:12:24.569Z,-1.28
2022-12-08T00:13:35.195Z,-1.32
2022-12-08T00:14:49.793Z,-1.36
2022-12-08T00:15:59.572Z,-1.37
2022-12-08T00:17:23.581Z,-1.40
2022-12-08T00:18:26.607Z,-1.37
2022-12-08T00:19:39.371Z,-1.36
2022-12-08T00:20:54.936Z,-1.30
2022-12-08T00:22:22.447Z,-1.35
2022-12-08T00:23:31.425Z,-1.40
2022-12-08T00:24:47.184Z,-1.44
2022-12-08T00:25:55.090Z,-1.46
2022-12-08T00:27:02.036Z,-1.48
2022-12-08T00:28:15.274Z,-1.48
2022-12-08T00:29:33.694Z,-1.51
2022-12-08T00:30:49.979Z,-1.41
2022-12-08T00:32:09.002Z,-1.45
2022-12-08T00:33:19.425Z,-1.47
2022-12-08T00:34:30.721Z,-1.52
2022-12-08T00:35:43.386Z,-1.56
2022-12-08T00:37:13.762Z,-1.66
2022-12-08T00:38:29.946Z,-1.69
2022-12-08T00:40:04.504Z,-1.77
2022-12-08T00:41:14.447Z,-1.86
2022-12-08T00:43:58.582Z,-2.02
2022-12-08T00:45:13.751Z,-2.04
2022-12-08T00:46:21.541Z,-2.13
2022-12-08T00:47:35.764Z,-2.18
2022-12-08T00:48:40.545Z,-2.33
2022-12-08T00:50:10.126Z,-2.44
2022-12-08T00:51:31.139Z,-2.56
2022-12-08T00:52:41.625Z,-2.62
2022-12-08T00:54:01.451Z,-2.59
2022-12-08T00:55:22.661Z,-2.68
2022-12-08T00:56:40.876Z,-2.72
2022-12-08T00:57:53.560Z,-2.77
2022-12-08T00:59:12.738Z,-2.82
2022-12-08T01:00:25.622Z,-2.93
2022-12-08T01:01:42.275Z,-3.02
2022-12-08T01:03:02.123Z,-3.10
2022-12-08T01:04:24.420Z,-3.17
2022-12-08T01:05:36.168Z,-3.24
2022-12-08T01:06:43.321Z,-3.22
2022-12-08T01:07:59.195Z,-3.22
2022-12-08T01:09:14.819Z,-3.21
2022-12-08T01:10:24.904Z,-3.27
2022-12-08T01:14:10.696Z,-3.46
2022-12-08T01:15:30.304Z,-3.41
2022-12-08T01:16:45.742Z,-3.37
2022-12-08T01:17:53.227Z,-3.38
2022-12-08T01:18:59.902Z,-3.42
2022-12-08T01:20:14.305Z,-3.41
2022-12-08T01:21:25.308Z,-3.45
2022-12-08T01:22:43.271Z,-3.50
2022-12-08T01:24:04.080Z,-3.49
2022-12-08T01:25:25.131Z,-3.49
2022-12-08T01:26:34.119Z,-3.50
2022-12-08T01:27:48.651Z,-3.58
2022-12-08T01:29:07.740Z,-3.63
2022-12-08T01:30:20.273Z,-3.65
2022-12-08T01:31:45.014Z,-3.64
2022-12-08T01:33:03.586Z,-3.67
2022-12-08T01:34:15.618Z,-3.66
2022-12-08T01:35:29.540Z,-3.64
2022-12-08T01:36:51.349Z,-3.62
2022-12-08T01:37:56.614Z,-3.66
2022-12-08T01:39:16.627Z,-3.72
2022-12-08T01:40:30.047Z,-3.83
2022-12-08T01:42:01.395Z,-3.88
2022-12-08T01:43:20.339Z,-3.95
2022-12-08T01:45:12.708Z,-4.02
2022-12-08T01:46:27.733Z,-4.09
2022-12-08T01:47:42.052Z,-4.10
2022-12-08T01:48:54.997Z,-4.13
2022-12-08T01:50:06.711Z,-4.03
2022-12-08T01:51:14.160Z,-3.98
2022-12-08T01:52:25.667Z,-4.00
2022-12-08T01:53:39.425Z,-4.02
2022-12-08T01:54:56.003Z,-4.04
2022-12-08T01:56:10.297Z,-4.08
2022-12-08T01:57:19.100Z,-4.12
2022-12-08T01:58:32.098Z,-4.15
2022-12-08T01:59:42.237Z,-4.15
2022-12-08T02:00:51.343Z,-4.20
2022-12-08T02:02:03.149Z,-4.25
2022-12-08T02:03:17.439Z,-4.27
2022-12-08T02:04:21.241Z,-4.23
2022-12-08T02:05:34.258Z,-4.29
2022-12-08T02:06:41.608Z,-4.34
2022-12-08T02:07:50.563Z,-4.32
2022-12-08T02:09:01.434Z,-4.14
2022-12-08T02:10:11.556Z,-4.11
2022-12-08T02:11:22.584Z,-4.15
2022-12-08T02:12:28.016Z,-4.11
2022-12-08T02:13:48.232Z,-4.14
2022-12-08T02:15:08.388Z,-4.20
2022-12-08T02:16:29.652Z,-4.23
2022-12-08T02:18:06.380Z,-4.32
2022-12-08T02:19:54.883Z,-4.39
2022-12-08T02:21:15.149Z,-4.41
2022-12-08T02:22:33.777Z,-4.42
2022-12-08T02:23:52.877Z,-4.46
2022-12-08T02:25:03.951Z,-4.50
2022-12-08T02:26:44.914Z,-4.56
2022-12-08T02:28:08.514Z,-4.61
2022-12-08T02:29:38.305Z,-4.64
2022-12-08T02:30:56.820Z,-4.65
2022-12-08T02:32:36.911Z,-4.69
2022-12-08T02:34:16.119Z,-4.70
2022-12-08T02:35:27.955Z,-4.74
2022-12-08T02:36:45.836Z,-4.75
2022-12-08T02:38:00.842Z,-4.75
2022-12-08T02:39:16.125Z,-4.76
2022-12-08T02:40:44.289Z,-4.77
2022-12-08T02:42:08.540Z,-4.78
2022-12-08T02:43:20.457Z,-4.70
2022-12-08T02:44:32.708Z,-4.60
2022-12-08T02:45:56.380Z,-4.58
2022-12-08T02:47:12.674Z,-4.62
2022-12-08T02:48:26.768Z,-4.67
2022-12-08T02:49:38.940Z,-4.72
2022-12-08T02:50:52.687Z,-4.78
2022-12-08T02:52:24.558Z,-4.84
2022-12-08T02:53:41.205Z,-4.88
2022-12-08T02:54:57.955Z,-4.94
2022-12-08T02:56:24.227Z,-4.99
2022-12-08T02:57:56.246Z,-5.02
2022-12-08T02:59:40.218Z,-5.07
2022-12-08T03:01:15.192Z,-5.09
2022-12-08T03:02:51.403Z,-5.11
2022-12-08T03:04:15.479Z,-5.12
2022-12-08T03:05:51.257Z,-5.14
2022-12-08T03:07:16.721Z,-5.15
2022-12-08T03:08:35.952Z,-5.20
2022-12-08T03:09:50.760Z,-5.22
2022-12-08T03:11:12.122Z,-5.23
2022-12-08T03:12:24.389Z,-5.25
2022-12-08T03:13:35.303Z,-5.27
2022-12-08T03:14:50.091Z,-5.26
2022-12-08T03:16:02.773Z,-5.27
2022-12-08T03:17:11.303Z,-5.27
2022-12-08T03:18:20.642Z,-5.29
2022-12-08T03:19:54.413Z,-5.31
2022-12-08T03:21:09.381Z,-5.31
2022-12-08T03:22:39.157Z,-5.34
2022-12-08T03:23:46.378Z,-5.36
2022-12-08T03:24:57.512Z,-5.37
2022-12-08T03:26:15.265Z,-5.41
2022-12-08T03:27:29.767Z,-5.40
2022-12-08T03:28:52.479Z,-5.39
2022-12-08T03:30:05.756Z,-5.40
2022-12-08T03:31:20.191Z,-5.40
2022-12-08T03:32:34.082Z,-5.39
2022-12-08T03:33:52.601Z,-5.37
2022-12-08T03:35:00.298Z,-5.36
2022-12-08T03:36:14.009Z,-5.37
2022-12-08T03:37:28.302Z,-5.38
2022-12-08T03:38:43.504Z,-5.38
2022-12-08T03:40:02.507Z,-5.41
2022-12-08T03:41:26.271Z,-5.37
2022-12-08T03:42:39.775Z,-5.38
2022-12-08T03:44:04.898Z,-5.38
2022-12-08T03:45:19.239Z,-5.38
2022-12-08T03:47:42.566Z,-5.27
2022-12-08T03:48:51.352Z,-5.21
2022-12-08T03:50:09.260Z,-5.14
2022-12-08T03:51:19.912Z,-5.10
2022-12-08T03:52:41.758Z,-5.01
2022-12-08T03:54:00.699Z,-5.00
2022-12-08T03:55:21.492Z,-5.00
2022-12-08T03:58:03.154Z,-4.98
2022-12-08T03:59:15.582Z,-4.97
2022-12-08T04:00:38.599Z,-4.95
2022-12-08T04:01:48.937Z,-4.95
2022-12-08T04:03:02.281Z,-4.93
2022-12-08T04:04:12.797Z,-4.95
2022-12-08T04:05:25.199Z,-4.96
2022-12-08T04:06:50.451Z,-4.97
2022-12-08T04:08:06.518Z,-4.96
2022-12-08T04:09:18.394Z,-4.92
2022-12-08T04:10:42.246Z,-4.94
2022-12-08T04:11:50.476Z,-4.96
2022-12-08T04:13:03.617Z,-4.95
2022-12-08T04:14:16.736Z,-4.82
2022-12-08T04:15:35.426Z,-4.67
2022-12-08T04:16:52.248Z,-4.47
2022-12-08T04:18:04.508Z,-4.51
2022-12-08T04:19:20.920Z,-4.36
2022-12-08T04:20:31.715Z,-4.31
2022-12-08T04:21:53.852Z,-4.29
2022-12-08T04:23:06.272Z,-4.25
2022-12-08T04:24:19.576Z,-4.15
2022-12-08T04:25:35.086Z,-4.17
2022-12-08T04:26:47.693Z,-4.21
2022-12-08T04:27:56.539Z,-4.31
2022-12-08T04:29:05.572Z,-4.29
2022-12-08T04:30:23.155Z,-4.37
2022-12-08T04:31:59.379Z,-4.47
2022-12-08T04:33:20.429Z,-4.53
2022-12-08T04:34:43.956Z,-4.52
2022-12-08T04:35:59.332Z,-4.59
2022-12-08T04:37:18.705Z,-4.62
2022-12-08T04:38:33.314Z,-4.65
2022-12-08T04:39:44.632Z,-4.68
2022-12-08T04:40:57.849Z,-4.72
2022-12-08T04:42:07.917Z,-4.74
2022-12-08T04:43:18.203Z,-4.75
2022-12-08T04:44:29.730Z,-4.78
2022-12-08T04:45:45.855Z,-4.79
2022-12-08T04:47:04.084Z,-4.80
2022-12-08T04:48:19.125Z,-4.84
2022-12-08T04:49:26.918Z,-4.88
2022-12-08T04:50:47.092Z,-4.91
2022-12-08T04:51:55.562Z,-4.96
2022-12-08T04:53:11.433Z,-4.99
2022-12-08T04:54:31.648Z,-5.06
2022-12-08T04:55:53.275Z,-5.11
2022-12-08T04:57:00.608Z,-5.11
2022-12-08T04:58:13.357Z,-5.11
2022-12-08T04:59:26.543Z,-5.09
2022-12-08T05:00:57.718Z,-5.12
2022-12-08T05:02:20.228Z,-5.18
2022-12-08T05:03:37.542Z,-5.20
2022-12-08T05:04:51.269Z,-5.24
2022-12-08T05:06:04.002Z,-5.28
2022-12-08T05:07:12.022Z,-5.32
2022-12-08T05:08:20.547Z,-5.35
2022-12-08T05:09:31.612Z,-5.38
2022-12-08T05:10:56.887Z,-5.43
2022-12-08T05:12:16.991Z,-5.51
2022-12-08T05:13:34.112Z,-5.54
2022-12-08T05:14:54.237Z,-5.53
2022-12-08T05:16:09.849Z,-5.52
2022-12-08T05:17:32.778Z,-5.56
2022-12-08T05:18:35.970Z,-5.58
2022-12-08T05:19:45.591Z,-5.63
2022-12-08T05:21:05.319Z,-5.65
2022-12-08T05:22:32.648Z,-5.69
2022-12-08T05:54:00.103Z,-5.50
2022-12-08T05:55:12.662Z,-5.41
2022-12-08T05:56:33.991Z,-5.32
2022-12-08T05:57:48.503Z,-5.33
2022-12-08T05:58:55.115Z,-5.33
2022-12-08T06:00:04.942Z,-5.35
2022-12-08T06:01:23.983Z,-5.37
2022-12-08T06:02:32.139Z,-5.41
2022-12-08T06:03:57.712Z,-5.44
2022-12-08T06:05:15.003Z,-5.46
2022-12-08T06:06:42.804Z,-5.51
2022-12-08T06:08:05.565Z,-5.51
2022-12-08T06:09:39.407Z,-5.51
2022-12-08T06:10:51.815Z,-5.50
2022-12-08T06:12:43.194Z,-5.54
2022-12-08T06:14:15.495Z,-5.57
2022-12-08T06:15:46.223Z,-5.56
2022-12-08T06:17:02.063Z,-5.55
2022-12-08T06:18:32.718Z,-5.56
2022-12-08T06:19:50.126Z,-5.64
2022-12-08T06:21:14.315Z,-5.65
2022-12-08T06:22:30.972Z,-5.68
2022-12-08T06:23:38.956Z,-5.75
2022-12-08T06:24:52.424Z,-5.76
2022-12-08T06:26:23.416Z,-5.78
2022-12-08T06:27:41.313Z,-5.83
2022-12-08T06:29:18.268Z,-5.87
2022-12-08T06:30:39.049Z,-5.89
2022-12-08T06:31:55.003Z,-5.88
2022-12-08T06:33:13.759Z,-5.92
2022-12-08T06:34:43.347Z,-5.98
2022-12-08T06:35:51.953Z,-6.04
2022-12-08T06:37:08.743Z,-6.08
2022-12-08T06:38:20.731Z,-6.06
2022-12-08T06:39:38.683Z,-6.02
2022-12-08T06:41:03.365Z,-5.87
2022-12-08T06:42:32.202Z,-5.82
2022-12-08T06:43:53.431Z,-5.86
2022-12-08T06:45:09.785Z,-5.52
2022-12-08T06:46:29.651Z,-5.31
2022-12-08T06:47:40.269Z,-5.31
2022-12-08T06:48:57.214Z,-5.38
2022-12-08T06:50:22.717Z,-5.34
2022-12-08T06:51:30.582Z,-5.36
2022-12-08T06:52:49.377Z,-5.43
2022-12-08T06:54:14.034Z,-5.38
2022-12-08T06:55:57.272Z,-5.14
2022-12-08T06:57:00.415Z,-5.03
2022-12-08T06:58:22.038Z,-4.94
2022-12-08T06:59:47.860Z,-4.79
2022-12-08T07:01:09.869Z,-4.74
2022-12-08T07:02:44.484Z,-4.70
2022-12-08T07:03:53.409Z,-4.61
2022-12-08T07:05:04.844Z,-4.65
2022-12-08T07:06:18.418Z,-4.74
2022-12-08T07:07:23.803Z,-4.88
2022-12-08T07:08:41.173Z,-4.91
2022-12-08T07:09:46.262Z,-4.91
2022-12-08T07:10:53.432Z,-4.88
2022-12-08T07:12:02.477Z,-4.94
2022-12-08T07:13:04.966Z,-5.03
2022-12-08T07:14:11.072Z,-5.09
2022-12-08T07:15:13.708Z,-5.14
2022-12-08T07:16:18.878Z,-5.18
2022-12-08T07:17:21.257Z,-5.15
2022-12-08T07:18:31.942Z,-5.19
2022-12-08T07:19:34.383Z,-5.21
2022-12-08T07:20:43.298Z,-5.22
2022-12-08T07:21:48.347Z,-5.23
2022-12-08T07:22:51.276Z,-5.25
2022-12-08T07:24:10.523Z,-5.24
2022-12-08T07:25:21.920Z,-5.21
2022-12-08T07:26:31.017Z,-5.23
2022-12-08T07:27:39.034Z,-5.26
2022-12-08T07:28:48.541Z,-5.29
2022-12-08T07:29:54.064Z,-5.30
2022-12-08T07:31:15.189Z,-5.30
2022-12-08T07:32:17.428Z,-5.31
2022-12-08T07:33:22.367Z,-5.31
2022-12-08T07:34:29.635Z,-5.30
2022-12-08T07:35:35.322Z,-5.28
2022-12-08T07:36:37.844Z,-5.26
2022-12-08T07:37:42.642Z,-5.25
2022-12-08T07:38:44.931Z,-5.23
2022-12-08T07:39:49.962Z,-5.19
2022-12-08T07:40:53.113Z,-5.18
2022-12-08T07:41:58.296Z,-5.15
2022-12-08T07:43:03.443Z,-5.11
2022-12-08T07:44:08.531Z,-5.09
2022-12-08T07:45:11.150Z,-5.07
2022-12-08T07:46:18.311Z,-5.07
2022-12-08T07:47:28.282Z,-5.05
2022-12-08T07:48:33.857Z,-5.02
2022-12-08T07:49:36.454Z,-5.00
2022-12-08T07:50:42.151Z,-4.98
2022-12-08T07:51:51.790Z,-4.97
2022-12-08T07:53:09.462Z,-4.93
2022-12-08T07:54:18.392Z,-4.88
2022-12-08T07:55:20.650Z,-4.79
2022-12-08T07:56:26.877Z,-4.76
2022-12-08T07:57:29.238Z,-4.67
2022-12-08T07:58:39.492Z,-4.56
2022-12-08T07:59:41.768Z,-4.45
2022-12-08T08:00:46.856Z,-4.42
2022-12-08T08:02:13.421Z,-4.34
2022-12-08T08:03:21.101Z,-4.06
2022-12-08T08:04:28.817Z,-4.01
2022-12-08T08:05:31.238Z,-3.93
2022-12-08T08:06:41.254Z,-3.82
2022-12-08T08:07:44.016Z,-3.82
2022-12-08T08:08:49.384Z,-3.77
2022-12-08T08:09:54.265Z,-3.67
2022-12-08T08:10:59.131Z,-3.63
2022-12-08T08:12:29.487Z,-3.57
2022-12-08T08:13:28.890Z,-3.54
2022-12-08T08:14:36.351Z,-3.48
2022-12-08T08:15:41.506Z,-3.46
2022-12-08T08:16:49.328Z,-3.42
2022-12-08T08:17:55.358Z,-3.37
2022-12-08T08:18:57.701Z,-3.34
2022-12-08T08:20:03.658Z,-3.30
2022-12-08T08:21:36.593Z,-3.28
2022-12-08T08:22:34.243Z,-3.22
2022-12-08T08:23:36.638Z,-3.22
2022-12-08T08:24:44.833Z,-3.18
2022-12-08T08:25:50.182Z,-3.17
2022-12-08T08:26:55.601Z,-3.12
2022-12-08T08:28:01.754Z,-3.10
2022-12-08T08:29:04.059Z,-3.05
2022-12-08T08:30:19.881Z,-2.97
2022-12-08T08:31:27.599Z,-2.81
2022-12-08T08:32:36.196Z,-2.65
2022-12-08T08:33:41.051Z,-2.51
2022-12-08T08:34:43.234Z,-2.37
2022-12-08T08:35:48.508Z,-2.31
2022-12-08T08:36:53.375Z,-2.17
2022-12-08T08:37:55.680Z,-1.89
2022-12-08T08:39:00.514Z,-1.68
2022-12-08T08:40:05.608Z,-1.67
2022-12-08T08:41:12.028Z,-1.61
2022-12-08T08:42:16.803Z,-1.39
2022-12-08T08:43:37.748Z,-1.38
2022-12-08T08:44:42.718Z,-1.15
2022-12-08T08:45:50.116Z,-1.19
2022-12-08T08:46:55.258Z,-1.16
2022-12-08T08:48:00.201Z,-1.01
2022-12-08T08:49:04.964Z,-0.86
2022-12-08T08:50:08.302Z,-0.76
2022-12-08T08:51:16.078Z,-1.01
2022-12-08T08:52:18.123Z,-1.11
2022-12-08T08:53:22.931Z,-1.14
2022-12-08T08:54:25.052Z,-1.31
2022-12-08T08:55:29.859Z,-1.30
2022-12-08T08:56:34.590Z,-1.28
2022-12-08T08:57:36.968Z,-1.17
2022-12-08T08:58:41.935Z,-1.21
2022-12-08T08:59:46.871Z,-1.10
2022-12-08T09:00:51.558Z,-0.62
2022-12-08T09:01:56.508Z,-0.47
2022-12-08T09:02:58.646Z,-0.04
2022-12-08T09:04:03.597Z,-0.04
2022-12-08T09:05:07.227Z,0.72
2022-12-08T09:06:12.017Z,0.80
2022-12-08T09:07:17.439Z,0.63
2022-12-08T09:08:19.718Z,0.87
2022-12-08T09:09:24.641Z,0.69
2022-12-08T09:10:30.269Z,0.69
2022-12-08T09:11:32.831Z,0.93
2022-12-08T09:12:37.751Z,0.58
2022-12-08T09:13:40.098Z,0.84
2022-12-08T09:14:45.971Z,1.36
2022-12-08T09:15:50.942Z,1.51
2022-12-08T09:16:58.272Z,1.68
2022-12-08T09:18:02.986Z,2.15
2022-12-08T09:19:07.684Z,1.54
2022-12-08T09:20:12.844Z,1.69
2022-12-08T09:21:22.623Z,1.87
2022-12-08T09:22:27.567Z,1.76
2022-12-08T09:23:35.219Z,1.66
2022-12-08T09:24:40.420Z,2.01
2022-12-08T09:25:44.618Z,2.11
2022-12-08T09:26:49.567Z,2.21
2022-12-08T09:27:54.230Z,2.35
2022-12-08T09:28:57.501Z,3.34
2022-12-08T09:30:02.451Z,3.26
2022-12-08T09:31:05.324Z,4.08
2022-12-08T09:32:13.249Z,3.11
2022-12-08T09:33:17.934Z,3.28
2022-12-08T09:34:22.659Z,3.07
2022-12-08T09:35:24.761Z,3.91
2022-12-08T09:36:29.542Z,3.18
2022-12-08T09:37:31.600Z,3.98
2022-12-08T09:38:36.381Z,3.64
2022-12-08T09:39:38.546Z,3.00
2022-12-08T09:40:51.914Z,3.10
2022-12-08T09:42:02.348Z,3.62
2022-12-08T09:43:14.799Z,4.11
2022-12-08T09:44:46.123Z,4.83
2022-12-08T09:45:51.874Z,5.15
2022-12-08T09:46:56.246Z,5.02
2022-12-08T09:48:09.598Z,4.31
2022-12-08T09:49:18.533Z,4.11
2022-12-08T09:50:33.905Z,5.07
2022-12-08T09:51:43.100Z,5.65
2022-12-08T09:52:55.860Z,6.59
2022-12-08T09:54:07.795Z,5.45
2022-12-08T09:55:20.411Z,5.68
2022-12-08T09:56:27.146Z,5.27
2022-12-08T09:57:31.045Z,6.24
2022-12-08T09:58:47.789Z,5.80
2022-12-08T09:59:58.012Z,6.16
2022-12-08T10:01:03.348Z,7.05
2022-12-08T10:02:24.610Z,6.16
2022-12-08T10:03:42.006Z,6.76
2022-12-08T10:04:44.553Z,5.83
2022-12-08T10:05:57.779Z,5.41
2022-12-08T10:07:13.123Z,5.41
2022-12-08T10:08:24.085Z,5.07
2022-12-08T10:09:36.173Z,5.98
2022-12-08T10:10:45.650Z,5.05
2022-12-08T10:11:59.289Z,4.36
2022-12-08T10:13:10.048Z,4.24
2022-12-08T10:14:26.477Z,3.85
2022-12-08T10:15:47.175Z,4.53
2022-12-08T10:16:54.883Z,4.20
2022-12-08T10:18:04.015Z,4.66
2022-12-08T10:19:18.514Z,5.13
2022-12-08T10:20:26.463Z,6.33
2022-12-08T10:21:34.838Z,5.31
2022-12-08T10:22:42.885Z,4.36
2022-12-08T10:23:53.555Z,4.23
2022-12-08T10:25:04.943Z,4.17
2022-12-08T10:26:12.934Z,3.87
2022-12-08T10:27:17.710Z,4.35
2022-12-08T10:28:22.582Z,4.96
2022-12-08T10:29:27.655Z,4.06
2022-12-08T10:30:32.739Z,3.74
2022-12-08T10:31:37.716Z,3.79
2022-12-08T10:32:44.011Z,4.08
2022-12-08T10:33:51.090Z,3.73
2022-12-08T10:35:09.198Z,3.85
2022-12-08T10:36:14.629Z,3.41
2022-12-08T10:37:18.215Z,2.71
2022-12-08T10:38:26.448Z,3.42
2022-12-08T10:39:35.525Z,3.46
2022-12-08T10:40:45.465Z,3.34
2022-12-08T10:41:50.714Z,4.21
2022-12-08T10:42:56.947Z,4.42
2022-12-08T10:44:04.755Z,4.82
2022-12-08T10:45:27.765Z,5.64
2022-12-08T10:46:33.148Z,5.83
2022-12-08T10:47:37.936Z,5.47
2022-12-08T10:48:55.214Z,5.64
2022-12-08T10:50:17.800Z,5.02
2022-12-08T10:51:30.178Z,5.79
2022-12-08T10:52:35.247Z,5.16
2022-12-08T10:53:49.131Z,6.23
2022-12-08T10:54:53.006Z,5.57
2022-12-08T10:56:10.189Z,6.01
2022-12-08T10:57:25.605Z,5.06
2022-12-08T10:58:37.561Z,5.04
2022-12-08T10:59:45.556Z,4.41
2022-12-08T11:00:53.834Z,4.30
2022-12-08T11:02:00.780Z,4.12
2022-12-08T11:03:05.702Z,4.36
2022-12-08T11:04:20.656Z,3.66
2022-12-08T11:05:39.410Z,3.44
2022-12-08T11:07:01.740Z,4.88
2022-12-08T11:08:14.565Z,5.44
2022-12-08T11:09:46.068Z,5.99
2022-12-08T11:11:01.947Z,5.90
2022-12-08T11:12:18.645Z,5.92
2022-12-08T11:13:30.634Z,7.17
2022-12-08T11:14:36.941Z,6.54
2022-12-08T11:15:46.033Z,7.07
2022-12-08T11:16:58.013Z,7.96
2022-12-08T11:18:21.442Z,6.48
2022-12-08T11:19:39.268Z,6.30
2022-12-08T11:20:46.399Z,6.87
2022-12-08T11:21:56.857Z,8.06
2022-12-08T11:23:00.392Z,9.03
2022-12-08T11:24:36.123Z,7.05
2022-12-08T11:25:49.762Z,6.13
2022-12-08T11:27:12.807Z,6.37
2022-12-08T11:28:20.484Z,7.17
2022-12-08T11:29:30.154Z,7.89
2022-12-08T11:30:41.098Z,8.71
2022-12-08T11:31:55.122Z,9.12
2022-12-08T11:33:12.644Z,7.99
2022-12-08T11:34:33.913Z,8.48
2022-12-08T11:35:39.407Z,9.30
2022-12-08T11:37:00.697Z,8.68
2022-12-08T11:38:22.425Z,8.50
2022-12-08T11:39:29.279Z,7.91
2022-12-08T11:40:43.570Z,8.91
2022-12-08T11:42:07.331Z,10.05
2022-12-08T11:43:17.379Z,11.03
2022-12-08T11:44:32.744Z,10.02
2022-12-08T11:45:40.406Z,10.52
2022-12-08T11:46:53.680Z,8.75
2022-12-08T11:48:11.406Z,10.25
2022-12-08T11:49:18.290Z,11.11
2022-12-08T11:50:35.021Z,11.64
2022-12-08T11:51:45.490Z,11.94
2022-12-08T11:53:07.666Z,12.07
2022-12-08T11:54:23.392Z,12.04
2022-12-08T11:55:50.342Z,11.80
2022-12-08T11:56:58.715Z,11.94
2022-12-08T11:58:14.415Z,11.18
2022-12-08T11:59:32.583Z,11.52
2022-12-08T12:00:40.071Z,11.18
2022-12-08T12:01:45.273Z,11.13
2022-12-08T12:03:07.055Z,11.16
2022-12-08T12:04:34.427Z,11.19
2022-12-08T12:07:50.285Z,10.67
2022-12-08T12:09:11.620Z,11.23
2022-12-08T12:10:43.522Z,10.91
2022-12-08T12:12:21.880Z,9.31
2022-12-08T12:14:17.070Z,7.89
2022-12-08T12:15:54.936Z,7.59
2022-12-08T12:17:53.530Z,6.23
2022-12-08T12:19:09.590Z,5.07
2022-12-08T12:20:31.872Z,5.14
2022-12-08T12:21:49.539Z,4.40
2022-12-08T12:23:18.045Z,4.59
2022-12-08T12:24:55.339Z,3.75
2022-12-08T12:26:28.074Z,3.12
2022-12-08T12:28:12.621Z,2.92
2022-12-08T12:29:41.735Z,2.54
2022-12-08T12:31:02.807Z,2.96
2022-12-08T12:32:21.302Z,3.36
2022-12-08T12:33:29.176Z,3.33
2022-12-08T12:34:39.292Z,3.72
2022-12-08T12:35:48.200Z,4.02
2022-12-08T12:37:07.053Z,4.28
2022-12-08T12:38:36.833Z,3.92
2022-12-08T12:40:06.631Z,3.47
2022-12-08T12:41:10.426Z,3.03
2022-12-08T12:42:43.485Z,3.03
2022-12-08T12:44:28.586Z,3.17
2022-12-08T12:45:34.990Z,3.61
2022-12-08T12:46:56.876Z,2.98
2022-12-08T12:48:14.057Z,3.13
2022-12-08T12:49:49.018Z,3.75
2022-12-08T12:51:15.518Z,4.31
2022-12-08T12:52:49.456Z,4.04
2022-12-08T12:53:55.210Z,4.09
2022-12-08T12:55:29.191Z,4.34
2022-12-08T12:56:51.228Z,4.12
2022-12-08T12:58:00.370Z,4.24
2022-12-08T12:59:25.993Z,4.21
2022-12-08T13:00:28.787Z,4.75
2022-12-08T13:01:57.766Z,4.95
2022-12-08T13:03:03.037Z,5.35
2022-12-08T13:04:08.515Z,4.82
2022-12-08T13:05:21.072Z,4.55
2022-12-08T13:06:32.831Z,3.88
2022-12-08T13:07:45.266Z,4.06
2022-12-08T13:09:05.117Z,4.26
2022-12-08T13:10:20.239Z,4.23
2022-12-08T13:11:26.281Z,4.41
2022-12-08T13:12:31.525Z,3.93
2022-12-08T13:13:34.104Z,3.99
2022-12-08T13:14:41.910Z,4.24
2022-12-08T13:15:52.694Z,4.42
2022-12-08T13:16:58.540Z,4.01
2022-12-08T13:18:03.570Z,4.01
2022-12-08T13:19:16.134Z,3.91
2022-12-08T13:20:25.021Z,3.65
2022-12-08T13:21:33.953Z,4.04
2022-12-08T13:23:04.433Z,4.02
2022-12-08T13:24:30.295Z,4.65
2022-12-08T13:25:55.669Z,3.95
2022-12-08T13:27:39.071Z,3.65
2022-12-08T13:29:14.105Z,3.77
2022-12-08T13:30:50.213Z,3.86
2022-12-08T13:31:57.197Z,3.23
2022-12-08T13:33:18.470Z,3.51
2022-12-08T13:34:31.446Z,4.40
2022-12-08T13:35:33.947Z,4.34
2022-12-08T13:36:42.018Z,4.10
2022-12-08T13:37:55.265Z,4.36
2022-12-08T13:39:02.764Z,4.67
2022-12-08T13:40:12.260Z,4.74
2022-12-08T13:41:20.885Z,5.20
2022-12-08T13:42:32.945Z,5.21
2022-12-08T13:43:57.777Z,3.97
2022-12-08T13:47:32.871Z,5.07
2022-12-08T13:57:27.650Z,3.04
2022-12-08T13:58:35.884Z,2.64
2022-12-08T13:59:47.196Z,2.68
2022-12-08T14:01:07.798Z,2.34
2022-12-08T14:02:21.240Z,2.42
2022-12-08T14:03:23.807Z,2.35
2022-12-08T14:04:53.949Z,2.27
2022-12-08T14:06:12.926Z,2.48
2022-12-08T14:07:19.166Z,2.59
2022-12-08T14:08:57.472Z,2.33
2022-12-08T14:09:55.857Z,2.52
2022-12-08T14:11:02.605Z,2.16
2022-12-08T14:12:11.424Z,2.05
2022-12-08T14:13:15.212Z,1.81
2022-12-08T14:14:54.035Z,1.58
2022-12-08T14:15:47.864Z,1.31
2022-12-08T14:16:56.706Z,1.26
2022-12-08T14:18:04.236Z,1.18
2022-12-08T14:19:14.783Z,1.15
2022-12-08T14:20:25.515Z,0.97
2022-12-08T14:21:34.447Z,0.96
2022-12-08T14:22:43.570Z,1.13
2022-12-08T14:23:49.163Z,1.04
2022-12-08T14:24:55.971Z,0.99
2022-12-08T14:25:58.420Z,1.05
2022-12-08T14:27:06.025Z,1.22
2022-12-08T14:28:13.389Z,1.36
2022-12-08T14:29:38.199Z,1.09
2022-12-08T14:30:43.310Z,1.15
2022-12-08T14:31:45.718Z,1.08
2022-12-08T14:32:53.227Z,1.25
2022-12-08T14:34:00.885Z,1.00
2022-12-08T14:35:21.875Z,0.84
2022-12-08T14:36:28.945Z,0.76
2022-12-08T14:37:36.205Z,0.80
2022-12-08T14:38:38.605Z,0.78
2022-12-08T14:39:43.891Z,0.72
2022-12-08T14:40:50.346Z,0.81
2022-12-08T14:42:03.740Z,0.63
2022-12-08T14:43:17.535Z,0.56
2022-12-08T14:44:26.624Z,0.50
2022-12-08T14:45:29.326Z,0.56
2022-12-08T14:46:34.598Z,0.47
2022-12-08T14:47:37.049Z,0.43
2022-12-08T14:48:45.776Z,0.42
2022-12-08T14:49:50.686Z,0.36
2022-12-08T14:51:05.003Z,0.36
2022-12-08T14:52:13.924Z,0.35
2022-12-08T14:53:18.324Z,0.36
2022-12-08T14:54:24.464Z,0.33
2022-12-08T14:55:30.751Z,0.30
2022-12-08T14:56:39.857Z,0.28
2022-12-08T14:57:44.820Z,0.41
2022-12-08T14:58:48.467Z,0.31
2022-12-08T14:59:53.735Z,0.31
2022-12-08T15:00:58.612Z,0.33
2022-12-08T15:02:19.543Z,0.45
2022-12-08T15:03:26.284Z,0.41
2022-12-08T15:04:31.992Z,0.36
2022-12-08T15:05:39.706Z,0.32
2022-12-08T15:06:55.431Z,0.16
2022-12-08T15:08:02.841Z,0.08
2022-12-08T15:09:20.862Z,0.06
2022-12-08T15:10:32.100Z,0.08
2022-12-08T15:11:38.799Z,0.07
2022-12-08T15:12:41.876Z,0.05
2022-12-08T15:13:48.457Z,0.07
2022-12-08T15:15:02.523Z,0.04
2022-12-08T15:16:27.573Z,-0.06
2022-12-08T15:17:37.383Z,-0.10
2022-12-08T15:18:41.217Z,-0.13
2022-12-08T15:19:57.921Z,-0.02
2022-12-08T15:21:09.490Z,0.02
2022-12-08T15:22:20.935Z,-0.03
2022-12-08T15:23:31.406Z,-0.14
2022-12-08T15:24:36.435Z,-0.21
2022-12-08T15:25:41.425Z,-0.26
2022-12-08T15:26:48.735Z,-0.29
2022-12-08T15:27:53.259Z,-0.28
2022-12-08T15:28:59.140Z,-0.35
2022-12-08T15:30:04.349Z,-0.35
2022-12-08T15:31:09.789Z,-0.34
2022-12-08T15:32:14.802Z,-0.38
2022-12-08T15:33:19.918Z,-0.41
2022-12-08T15:34:25.243Z,-0.45
2022-12-08T15:35:33.661Z,-0.47
2022-12-08T15:36:43.458Z,-0.51
2022-12-08T15:37:49.530Z,-0.55
2022-12-08T15:38:54.466Z,-0.59
2022-12-08T15:39:59.587Z,-0.55
2022-12-08T15:41:04.611Z,-0.59
2022-12-08T15:42:14.753Z,-0.63
2022-12-08T15:43:17.072Z,-0.63
2022-12-08T15:44:21.985Z,-0.68
2022-12-08T15:45:30.843Z,-0.69
2022-12-08T15:46:35.936Z,-0.64
2022-12-08T15:47:40.891Z,-0.54
2022-12-08T15:48:43.583Z,-0.60
2022-12-08T15:49:49.726Z,-0.67
2022-12-08T15:50:54.882Z,-0.60
2022-12-08T15:52:11.192Z,-0.63
2022-12-08T15:53:16.791Z,-0.68
2022-12-08T15:54:19.415Z,-0.70
2022-12-08T15:55:25.254Z,-0.71
2022-12-08T15:56:28.759Z,-0.72
2022-12-08T15:58:30.836Z,-0.72
2022-12-08T15:59:00.832Z,-0.72
2022-12-08T16:00:04.826Z,-0.76
2022-12-08T16:01:10.168Z,-0.79
2022-12-08T16:02:17.917Z,-0.83
2022-12-08T16:04:19.936Z,-0.85
2022-12-08T16:07:54.503Z,-0.87
2022-12-08T16:09:11.688Z,-0.92
2022-12-08T16:10:20.355Z,-0.94
2022-12-08T16:12:09.462Z,-0.97
2022-12-08T16:13:55.399Z,-0.98
2022-12-08T16:16:08.755Z,-1.03
2022-12-08T16:17:14.764Z,-1.05
2022-12-08T16:18:24.651Z,-1.08
2022-12-08T16:19:30.236Z,-1.09
2022-12-08T16:20:58.883Z,-1.10
2022-12-08T16:22:44.989Z,-1.11
2022-12-08T16:23:42.253Z,-1.12
2022-12-08T16:24:48.194Z,-1.14
2022-12-08T16:26:20.417Z,-1.18
2022-12-08T16:28:54.747Z,-1.20
2022-12-08T16:29:59.404Z,-1.22
2022-12-08T16:31:07.630Z,-1.22
2022-12-08T16:32:17.016Z,-1.19
2022-12-08T16:33:19.543Z,-1.16
2022-12-08T16:34:24.584Z,-1.11
2022-12-08T16:35:27.296Z,-1.11
2022-12-08T16:36:32.350Z,-1.16
2022-12-08T16:37:37.399Z,-1.18
2022-12-08T16:38:45.081Z,-1.19
2022-12-08T16:39:50.208Z,-1.19
2022-12-08T16:41:07.540Z,-1.20
2022-12-08T16:42:28.772Z,-1.24
2022-12-08T16:43:35.575Z,-1.22
2022-12-08T16:44:44.506Z,-1.24
2022-12-08T16:45:49.800Z,-1.28
2022-12-08T16:46:52.443Z,-1.30
2022-12-08T16:47:59.493Z,-1.31
2022-12-08T16:49:01.910Z,-1.34
2022-12-08T16:50:12.226Z,-1.35
2022-12-08T16:51:26.496Z,-1.32
2022-12-08T16:52:32.145Z,-1.26